Chimayo, New Mexico
Current Conditions -  °F | °C
As of 9:35 AM on Friday 31 Oct 2014 (Local Time) from KLAM Reporting Station
Clear Clear  
Wind Chill:   Ceiling: Unl
Heat Index:   Visibility: 10mi
Dew Point: -4°   Wind: 9mph
Humidity: 42%   Direction: 190°S
Pressure: 30.47"   Gusts: 17mph
Location:  36°N, 105.93°W
Report Text: KLAM 311535Z AUTO 19008G15KT 160V220 10SM CLR 08/M04 A3047 RMK AO2 T00831041
Loading
Personal Weather Stations






























Interactive Weather Map
Tropical Storm Tracking
New forecast layout! Learn more

10-Day Weather Forecast

Advertisements
Track Severe Weather on mobile